Time;durP1;ratioP1;P1;durP2;ratioP2;P2;SDS_P1;SDS_P2;PMS_P1;PMS_P2;Temp;Humidity;BMP_temperature;BMP_pressure;BME280_temperature;BME280_humidity;BME280_pressure;Samples;Min_cycle;Max_cycle;Signal;HPM_P1;HPM_P2
2021/12/31 00:00:06;;;;;;;15.32;6.47;;;12.40;99.90;;;;;;5063427;28;20048;-72
2021/12/31 00:02:32;;;;;;;23.20;5.90;;;12.40;99.90;;;;;;5069799;28;20167;-72
2021/12/31 00:04:58;;;;;;;19.05;6.22;;;12.40;99.90;;;;;;5065665;28;20119;-71
2021/12/31 00:07:23;;;;;;;20.13;6.47;;;12.40;99.90;;;;;;5060920;28;20053;-71
2021/12/31 00:09:49;;;;;;;15.48;6.38;;;12.40;99.90;;;;;;5057260;28;20091;-71
2021/12/31 00:12:15;;;;;;;15.57;6.53;;;12.40;99.90;;;;;;5065210;28;20041;-72
2021/12/31 00:14:40;;;;;;;16.65;6.13;;;12.50;99.90;;;;;;5078982;28;20047;-72
2021/12/31 00:17:07;;;;;;;14.88;5.95;;;12.40;99.90;;;;;;5066568;28;20041;-72
2021/12/31 00:19:39;;;;;;;15.35;6.65;;;12.40;99.90;;;;;;5047709;28;20123;-72
2021/12/31 00:22:26;;;;;;;16.40;6.53;;;12.40;99.90;;;;;;5066049;28;20049;-72
2021/12/31 00:24:50;;;;;;;18.65;6.75;;;12.40;99.90;;;;;;5069588;28;20056;-72
2021/12/31 00:27:16;;;;;;;22.63;7.40;;;12.40;99.90;;;;;;5058463;28;20052;-71
2021/12/31 00:29:41;;;;;;;15.35;6.25;;;12.40;99.90;;;;;;5070395;28;20539;-71
2021/12/31 00:32:07;;;;;;;23.80;6.70;;;12.40;99.90;;;;;;5051504;28;20083;-71
2021/12/31 00:34:34;;;;;;;31.50;7.43;;;12.40;99.90;;;;;;5068752;28;20044;-71
2021/12/31 00:36:59;;;;;;;16.15;5.95;;;12.40;99.90;;;;;;5069024;28;20123;-71
2021/12/31 00:39:25;;;;;;;20.73;6.85;;;12.40;99.90;;;;;;5065961;28;20453;-72
2021/12/31 00:41:51;;;;;;;19.27;6.53;;;12.40;99.90;;;;;;5069853;28;20045;-71
2021/12/31 00:44:16;;;;;;;18.60;6.75;;;12.40;99.90;;;;;;5068291;28;20102;-71
2021/12/31 00:46:42;;;;;;;21.38;6.53;;;12.40;99.90;;;;;;5071827;28;20048;-71
2021/12/31 00:49:07;;;;;;;18.05;5.78;;;12.40;99.90;;;;;;5066479;28;20049;-71
2021/12/31 00:51:34;;;;;;;20.23;7.13;;;12.40;99.90;;;;;;5070123;28;20101;-71
2021/12/31 00:53:59;;;;;;;22.17;7.15;;;12.40;99.90;;;;;;5069537;28;20136;-71
2021/12/31 00:56:25;;;;;;;23.83;7.00;;;12.40;99.90;;;;;;5068027;28;20453;-71
2021/12/31 00:58:51;;;;;;;16.25;7.05;;;12.40;99.90;;;;;;5068078;28;20045;-71
2021/12/31 01:01:20;;;;;;;20.60;6.70;;;12.40;99.90;;;;;;5070126;28;20127;-71
2021/12/31 01:03:46;;;;;;;18.85;6.07;;;12.50;99.90;;;;;;5067913;28;20060;-71
2021/12/31 01:06:12;;;;;;;13.73;5.95;;;12.50;99.90;;;;;;5066921;28;20055;-72
2021/12/31 01:08:38;;;;;;;24.73;6.35;;;12.50;99.90;;;;;;5066538;28;20045;-71
2021/12/31 01:11:04;;;;;;;16.13;7.43;;;12.50;99.90;;;;;;5070044;28;20106;-71
2021/12/31 01:13:36;;;;;;;14.20;5.43;;;12.50;99.90;;;;;;5066589;28;20048;-71
2021/12/31 01:16:03;;;;;;;30.63;7.65;;;12.50;99.90;;;;;;5057010;28;20053;-71
2021/12/31 01:21:18;;;;;;;21.25;7.30;;;12.50;99.90;;;;;;5068884;28;20135;-71
2021/12/31 01:23:44;;;;;;;21.85;6.90;;;12.50;99.90;;;;;;5068178;28;20119;-72
2021/12/31 01:26:09;;;;;;;23.17;8.32;;;12.50;99.90;;;;;;5068954;28;20075;-71
2021/12/31 01:28:36;;;;;;;20.38;8.30;;;12.50;99.90;;;;;;5068268;28;20080;-72
2021/12/31 01:31:03;;;;;;;22.58;7.50;;;12.50;99.90;;;;;;5065365;28;20534;-72
2021/12/31 01:33:29;;;;;;;21.27;7.63;;;12.50;99.90;;;;;;5067561;28;20129;-71
2021/12/31 01:35:54;;;;;;;19.35;7.90;;;12.50;99.90;;;;;;5070936;28;20500;-72
2021/12/31 01:38:20;;;;;;;22.25;7.22;;;12.50;99.90;;;;;;5067969;28;20045;-71
2021/12/31 01:40:48;;;;;;;20.33;8.07;;;12.60;99.90;;;;;;5068788;28;20075;-71
2021/12/31 01:43:14;;;;;;;21.17;8.35;;;12.60;99.90;;;;;;5067468;28;20136;-71
2021/12/31 01:45:46;;;;;;;21.40;8.35;;;12.60;99.90;;;;;;5063130;28;20123;-72
2021/12/31 01:48:25;;;;;;;18.45;8.52;;;12.60;99.90;;;;;;5070849;28;20064;-71
2021/12/31 01:50:51;;;;;;;20.38;7.32;;;12.60;99.90;;;;;;5066841;28;20479;-71
2021/12/31 01:53:18;;;;;;;26.55;7.22;;;12.60;99.90;;;;;;5050582;28;20041;-71
2021/12/31 01:55:44;;;;;;;23.20;7.65;;;12.60;99.90;;;;;;5067489;28;20831;-72
2021/12/31 01:58:12;;;;;;;21.30;8.57;;;12.60;99.90;;;;;;5067525;28;20497;-71
2021/12/31 02:00:38;;;;;;;24.05;8.07;;;12.60;99.90;;;;;;5069364;28;20125;-72
2021/12/31 02:03:05;;;;;;;17.27;7.18;;;12.60;99.90;;;;;;5065910;28;20056;-71
2021/12/31 02:05:32;;;;;;;20.15;8.32;;;12.50;99.90;;;;;;5066640;28;20052;-71
2021/12/31 02:08:00;;;;;;;13.75;6.63;;;12.60;99.90;;;;;;5069182;28;20209;-71
2021/12/31 02:10:26;;;;;;;21.70;7.15;;;12.60;99.90;;;;;;5066756;28;20047;-71
2021/12/31 02:12:53;;;;;;;24.58;7.57;;;12.60;99.90;;;;;;5082577;28;20071;-71
2021/12/31 02:15:20;;;;;;;15.02;7.95;;;12.60;99.90;;;;;;5061146;28;20077;-71
2021/12/31 02:17:48;;;;;;;24.73;8.17;;;12.60;99.90;;;;;;5069512;28;20048;-71
2021/12/31 02:20:14;;;;;;;18.38;7.15;;;12.60;99.90;;;;;;5070807;28;20130;-71
2021/12/31 02:22:54;;;;;;;22.60;9.18;;;12.60;99.90;;;;;;5069285;28;20102;-71
2021/12/31 02:25:22;;;;;;;20.00;6.38;;;12.60;99.90;;;;;;5067617;28;20055;-71
2021/12/31 02:27:48;;;;;;;32.97;8.43;;;12.50;99.90;;;;;;5063085;28;20436;-71
2021/12/31 02:30:14;;;;;;;23.67;8.38;;;12.60;99.90;;;;;;5067612;28;20044;-72
2021/12/31 02:32:40;;;;;;;16.67;7.85;;;12.60;99.90;;;;;;5064506;28;20048;-71
2021/12/31 02:35:08;;;;;;;13.20;7.97;;;12.70;99.90;;;;;;5049771;28;20082;-72
2021/12/31 02:37:34;;;;;;;10.88;7.10;;;12.70;99.90;;;;;;5070094;28;20044;-71
2021/12/31 02:40:08;;;;;;;19.63;7.32;;;12.70;99.90;;;;;;5066647;28;20041;-71
2021/12/31 02:42:33;;;;;;;11.48;8.52;;;12.70;99.90;;;;;;5063283;28;20040;-71
2021/12/31 02:44:59;;;;;;;13.85;7.85;;;12.70;99.90;;;;;;5068708;28;20040;-71
2021/12/31 02:47:26;;;;;;;20.98;8.55;;;12.70;99.90;;;;;;5066164;28;20223;-71
2021/12/31 02:49:53;;;;;;;15.05;9.15;;;12.70;99.90;;;;;;5046093;28;20051;-71
2021/12/31 02:52:19;;;;;;;19.17;10.35;;;12.70;99.90;;;;;;5062606;28;20049;-71
2021/12/31 02:54:47;;;;;;;20.35;9.80;;;12.70;99.90;;;;;;5060660;28;20784;-71
2021/12/31 02:57:14;;;;;;;13.38;9.10;;;12.70;99.90;;;;;;5073685;28;20041;-71
2021/12/31 02:59:41;;;;;;;15.38;9.95;;;12.70;99.90;;;;;;5060900;28;20497;-71
2021/12/31 03:02:07;;;;;;;16.48;10.60;;;12.70;99.90;;;;;;5068576;28;20094;-70
2021/12/31 03:04:38;;;;;;;25.05;11.82;;;12.70;99.90;;;;;;5065908;28;20556;-71
2021/12/31 03:07:08;;;;;;;19.70;11.68;;;12.70;99.90;;;;;;5066194;28;20577;-71
2021/12/31 03:09:38;;;;;;;22.73;10.98;;;12.70;99.90;;;;;;5068665;28;20123;-71
2021/12/31 03:12:04;;;;;;;17.85;11.75;;;12.70;99.90;;;;;;5066867;28;20028;-71
2021/12/31 03:14:31;;;;;;;19.08;10.90;;;12.70;99.90;;;;;;5061801;28;20044;-71
2021/12/31 03:16:58;;;;;;;19.80;12.30;;;12.70;99.90;;;;;;5061490;28;20053;-72
2021/12/31 03:19:24;;;;;;;22.17;11.25;;;12.70;99.90;;;;;;5059418;28;20048;-72
2021/12/31 03:21:49;;;;;;;15.48;12.48;;;12.70;99.90;;;;;;5068862;28;20486;-72
2021/12/31 03:24:15;;;;;;;25.20;13.50;;;12.70;99.90;;;;;;5059949;28;20036;-72
2021/12/31 03:26:40;;;;;;;30.95;12.38;;;12.70;99.90;;;;;;5069238;28;20083;-71
2021/12/31 03:29:06;;;;;;;30.35;12.35;;;12.70;99.90;;;;;;5066415;28;20040;-71
2021/12/31 03:31:32;;;;;;;19.17;13.23;;;12.70;99.90;;;;;;5063489;28;20441;-71
2021/12/31 03:33:58;;;;;;;17.52;14.70;;;12.70;99.90;;;;;;5066841;28;20164;-71
2021/12/31 03:36:23;;;;;;;20.73;13.45;;;12.80;99.90;;;;;;5065528;28;20051;-71
2021/12/31 03:38:49;;;;;;;18.45;13.70;;;12.80;99.90;;;;;;5067710;28;20045;-71
2021/12/31 03:41:15;;;;;;;21.73;13.45;;;12.80;99.90;;;;;;5064161;28;20051;-71
2021/12/31 03:43:40;;;;;;;20.17;12.88;;;12.80;99.90;;;;;;5067048;28;20060;-71
2021/12/31 03:46:07;;;;;;;15.45;13.30;;;12.80;99.90;;;;;;5067738;28;20075;-71
2021/12/31 03:48:33;;;;;;;22.15;13.88;;;12.80;99.90;;;;;;5074798;28;20409;-71
2021/12/31 03:50:59;;;;;;;18.55;13.52;;;12.80;99.90;;;;;;5070658;28;20102;-71
2021/12/31 03:53:24;;;;;;;14.15;11.35;;;12.80;99.90;;;;;;5070515;28;20044;-71
2021/12/31 03:55:50;;;;;;;16.48;12.98;;;12.80;99.90;;;;;;5069458;28;20490;-71
2021/12/31 03:58:16;;;;;;;15.35;13.50;;;12.80;99.90;;;;;;5068939;28;20050;-71
2021/12/31 04:00:42;;;;;;;13.13;11.30;;;12.90;99.90;;;;;;5060271;28;20044;-71
2021/12/31 04:03:09;;;;;;;17.30;12.80;;;12.90;99.90;;;;;;5070693;28;20065;-71
2021/12/31 04:05:36;;;;;;;14.02;11.57;;;12.90;99.90;;;;;;5065614;28;20386;-71
2021/12/31 04:08:02;;;;;;;14.05;10.48;;;12.90;99.90;;;;;;5071057;28;20409;-71
2021/12/31 04:10:28;;;;;;;32.90;12.90;;;12.90;99.90;;;;;;5069203;28;20047;-71
2021/12/31 04:12:55;;;;;;;18.95;11.88;;;12.90;99.90;;;;;;5072850;28;20120;-71
2021/12/31 04:15:20;;;;;;;17.73;11.27;;;12.90;99.90;;;;;;5067540;28;20139;-71
2021/12/31 04:17:46;;;;;;;14.27;10.70;;;12.90;99.90;;;;;;5072692;28;20127;-71
2021/12/31 04:20:19;;;;;;;20.02;11.90;;;12.80;99.90;;;;;;5071733;28;20067;-71
2021/12/31 04:22:54;;;;;;;18.27;12.40;;;12.90;99.90;;;;;;5068460;28;20594;-71
2021/12/31 04:25:21;;;;;;;15.30;11.90;;;12.90;99.90;;;;;;5062576;28;20048;-71
2021/12/31 04:27:47;;;;;;;13.32;11.27;;;12.90;99.90;;;;;;5070808;28;20047;-71
2021/12/31 04:30:13;;;;;;;15.80;12.05;;;12.90;99.90;;;;;;5065660;28;20151;-71
2021/12/31 04:32:42;;;;;;;22.85;13.10;;;12.80;99.90;;;;;;5067986;28;20486;-72
2021/12/31 04:35:10;;;;;;;18.23;13.50;;;12.80;99.90;;;;;;5070062;28;20102;-71
2021/12/31 04:37:35;;;;;;;21.17;13.20;;;12.80;99.90;;;;;;5067748;28;20062;-71
2021/12/31 04:40:01;;;;;;;15.43;12.20;;;12.80;99.90;;;;;;5062242;28;20287;-71
2021/12/31 04:42:27;;;;;;;24.92;15.02;;;12.70;99.90;;;;;;5068083;28;20745;-71
2021/12/31 04:44:52;;;;;;;17.25;12.68;;;12.80;99.90;;;;;;5070416;28;20044;-71
2021/12/31 04:47:18;;;;;;;23.15;13.48;;;12.80;99.90;;;;;;5071731;28;20523;-71
2021/12/31 04:49:43;;;;;;;21.00;13.48;;;12.80;99.90;;;;;;5067559;28;20051;-71
2021/12/31 04:52:09;;;;;;;18.58;12.80;;;12.80;99.90;;;;;;5070513;28;20047;-71
2021/12/31 04:54:35;;;;;;;26.13;13.73;;;12.80;99.90;;;;;;5067071;28;20047;-71
2021/12/31 04:57:00;;;;;;;19.42;12.88;;;12.80;99.90;;;;;;5065216;28;20040;-71
2021/12/31 04:59:26;;;;;;;18.13;13.40;;;12.80;99.90;;;;;;5069969;28;20076;-71
2021/12/31 05:01:52;;;;;;;14.07;11.27;;;12.80;99.90;;;;;;5068908;28;20182;-71
2021/12/31 05:04:18;;;;;;;32.83;14.60;;;12.80;99.90;;;;;;5070484;28;20049;-71
2021/12/31 05:06:45;;;;;;;20.63;12.35;;;12.80;99.90;;;;;;5068724;28;20045;-71
2021/12/31 05:09:11;;;;;;;19.88;12.00;;;12.80;99.90;;;;;;5067384;28;20127;-71
2021/12/31 05:11:37;;;;;;;20.63;10.68;;;12.80;99.90;;;;;;5070384;28;20128;-71
2021/12/31 05:14:04;;;;;;;22.92;11.10;;;12.80;99.90;;;;;;5057721;28;20048;-71
2021/12/31 05:16:30;;;;;;;16.35;11.10;;;12.80;99.90;;;;;;5056696;28;20053;-71
2021/12/31 05:18:56;;;;;;;14.13;9.45;;;12.80;99.90;;;;;;5064889;28;20548;-71
2021/12/31 05:21:22;;;;;;;12.07;9.10;;;12.80;99.90;;;;;;5061027;28;20242;-71
2021/12/31 05:23:47;;;;;;;11.82;9.60;;;12.80;99.90;;;;;;5064867;28;20670;-71
2021/12/31 05:26:13;;;;;;;12.20;8.20;;;12.90;99.90;;;;;;5067728;28;20519;-71
2021/12/31 05:28:38;;;;;;;14.52;9.95;;;12.90;99.90;;;;;;5066335;28;20507;-71
2021/12/31 05:31:05;;;;;;;14.32;9.65;;;12.90;99.90;;;;;;5068977;28;20052;-71
2021/12/31 05:33:30;;;;;;;12.50;7.68;;;12.90;99.90;;;;;;5065565;28;20060;-71
2021/12/31 05:35:59;;;;;;;14.30;8.50;;;12.90;99.90;;;;;;5061601;28;20045;-71
2021/12/31 05:38:25;;;;;;;10.60;8.43;;;12.80;99.90;;;;;;5065383;28;20417;-71
2021/12/31 05:40:51;;;;;;;11.10;7.72;;;12.80;99.90;;;;;;5079531;28;20044;-71
2021/12/31 05:43:17;;;;;;;9.18;7.35;;;12.80;99.90;;;;;;5068313;28;20105;-71
2021/12/31 05:45:42;;;;;;;12.27;8.00;;;12.90;99.90;;;;;;5064878;28;20045;-71
2021/12/31 05:48:08;;;;;;;12.20;6.78;;;12.90;99.90;;;;;;5057944;28;20048;-70
2021/12/31 05:50:33;;;;;;;12.93;7.28;;;12.90;99.90;;;;;;5064421;28;20060;-71
2021/12/31 05:53:01;;;;;;;10.40;7.35;;;12.90;99.90;;;;;;5064434;28;20421;-71
2021/12/31 05:55:27;;;;;;;13.30;8.00;;;12.80;99.90;;;;;;5065758;28;20117;-71
2021/12/31 05:57:57;;;;;;;10.10;6.97;;;12.80;99.90;;;;;;5060475;28;20047;-71
2021/12/31 06:00:23;;;;;;;9.77;6.85;;;12.70;99.90;;;;;;5064926;28;20383;-71
2021/12/31 06:02:49;;;;;;;17.98;6.80;;;12.70;99.90;;;;;;5064808;28;20506;-71
2021/12/31 06:05:15;;;;;;;10.82;6.65;;;12.70;99.90;;;;;;5065480;28;20055;-71
2021/12/31 06:07:41;;;;;;;14.15;6.50;;;12.70;99.90;;;;;;5064024;28;20519;-71
2021/12/31 06:10:07;;;;;;;12.70;7.30;;;12.60;99.90;;;;;;5062579;28;20040;-71
2021/12/31 06:12:37;;;;;;;9.13;6.07;;;12.60;99.90;;;;;;5068116;28;20041;-71
2021/12/31 06:15:05;;;;;;;10.35;5.32;;;12.60;99.90;;;;;;5062795;28;20105;-71
2021/12/31 06:17:32;;;;;;;9.98;6.53;;;12.60;99.90;;;;;;5067339;28;20040;-72
2021/12/31 06:19:57;;;;;;;11.55;5.90;;;12.50;99.90;;;;;;5062141;28;20603;-71
2021/12/31 06:22:24;;;;;;;10.10;6.32;;;12.50;99.90;;;;;;5066017;28;20045;-72
2021/12/31 06:24:51;;;;;;;15.30;5.30;;;12.40;99.90;;;;;;5066847;28;20051;-71
2021/12/31 06:27:17;;;;;;;8.07;5.93;;;12.40;99.90;;;;;;5066371;28;20132;-71
2021/12/31 06:29:43;;;;;;;7.93;5.20;;;12.40;99.90;;;;;;5065373;28;20087;-71
2021/12/31 06:32:09;;;;;;;8.20;5.32;;;12.40;99.90;;;;;;5065670;28;20072;-71
2021/12/31 06:34:34;;;;;;;8.65;6.55;;;12.50;99.90;;;;;;5067320;28;20422;-71
2021/12/31 06:37:03;;;;;;;9.98;5.55;;;12.50;99.90;;;;;;5065099;28;20885;-71
2021/12/31 06:39:29;;;;;;;9.02;5.93;;;12.60;99.90;;;;;;5062612;28;20144;-71
2021/12/31 06:41:55;;;;;;;9.85;5.38;;;12.60;99.90;;;;;;5069335;28;20155;-71
2021/12/31 06:44:20;;;;;;;10.50;5.57;;;12.60;99.90;;;;;;5066767;28;21182;-71
2021/12/31 06:46:46;;;;;;;5.95;4.63;;;12.60;99.90;;;;;;5068232;28;20473;-71
2021/12/31 06:49:12;;;;;;;7.70;4.95;;;12.60;99.90;;;;;;5064679;28;20036;-71
2021/12/31 06:51:38;;;;;;;7.88;6.15;;;12.60;99.90;;;;;;5069658;28;20117;-71
2021/12/31 06:54:03;;;;;;;7.18;5.10;;;12.60;99.90;;;;;;5065569;28;20036;-71
2021/12/31 06:56:30;;;;;;;7.32;5.85;;;12.60;99.90;;;;;;5064064;28;20489;-71
2021/12/31 06:58:55;;;;;;;9.48;5.97;;;12.60;99.90;;;;;;5075504;28;20403;-71
2021/12/31 07:01:21;;;;;;;12.43;4.45;;;12.50;99.90;;;;;;5067269;28;20044;-71
2021/12/31 07:03:47;;;;;;;10.07;6.32;;;12.50;99.90;;;;;;5066750;28;20052;-71
2021/12/31 07:06:13;;;;;;;10.30;5.60;;;12.50;99.90;;;;;;5064917;28;20048;-71
2021/12/31 07:08:39;;;;;;;9.93;5.57;;;12.50;99.90;;;;;;5065160;28;20074;-71
2021/12/31 07:11:05;;;;;;;14.32;6.65;;;12.50;99.90;;;;;;5060971;28;20056;-71
2021/12/31 07:13:31;;;;;;;11.90;5.32;;;12.50;99.90;;;;;;5068343;28;20052;-71
2021/12/31 07:15:56;;;;;;;10.60;5.50;;;12.40;99.90;;;;;;5066495;28;20044;-71
2021/12/31 07:18:23;;;;;;;6.68;5.65;;;12.40;99.90;;;;;;5063857;28;20118;-71
2021/12/31 07:20:49;;;;;;;7.75;5.50;;;12.30;99.90;;;;;;5063854;28;20040;-71
2021/12/31 07:23:17;;;;;;;9.10;5.45;;;12.20;99.90;;;;;;5066500;28;20048;-71
2021/12/31 07:25:43;;;;;;;9.90;6.03;;;12.20;99.90;;;;;;5066570;28;20079;-70
2021/12/31 07:28:11;;;;;;;10.18;6.68;;;12.20;99.90;;;;;;5067485;28;20131;-71
2021/12/31 07:30:37;;;;;;;11.47;6.10;;;12.10;99.90;;;;;;5064490;28;20040;-71
2021/12/31 07:33:03;;;;;;;12.25;6.55;;;12.10;99.90;;;;;;5067434;28;20115;-71
2021/12/31 07:35:31;;;;;;;6.38;5.70;;;12.10;99.90;;;;;;5063722;28;20405;-72
2021/12/31 07:37:57;;;;;;;9.37;5.90;;;12.10;99.90;;;;;;5067344;28;20119;-71
2021/12/31 07:40:43;;;;;;;11.88;7.20;;;12.00;99.90;;;;;;5070688;28;20082;-71
2021/12/31 07:43:10;;;;;;;10.20;6.55;;;12.00;99.90;;;;;;5061095;28;20052;-71
2021/12/31 07:45:36;;;;;;;8.85;6.43;;;12.00;99.90;;;;;;5059735;28;20150;-71
2021/12/31 07:48:06;;;;;;;7.82;6.18;;;12.00;99.90;;;;;;5066571;28;20563;-71
2021/12/31 07:50:32;;;;;;;12.95;6.22;;;12.00;99.90;;;;;;5065423;28;20139;-72
2021/12/31 07:52:58;;;;;;;12.50;6.25;;;12.00;99.90;;;;;;5064724;28;20097;-71
2021/12/31 07:55:24;;;;;;;9.52;5.55;;;12.00;99.90;;;;;;5062376;28;20036;-71
2021/12/31 07:57:50;;;;;;;10.77;6.72;;;12.00;99.90;;;;;;5067881;28;20059;-71
2021/12/31 08:00:16;;;;;;;15.02;6.63;;;12.00;99.90;;;;;;5065963;28;20044;-71
2021/12/31 08:02:42;;;;;;;9.60;6.82;;;12.00;99.90;;;;;;5065594;28;20401;-71
2021/12/31 08:05:08;;;;;;;10.65;7.18;;;11.90;99.90;;;;;;5065236;28;20061;-71
2021/12/31 08:07:34;;;;;;;13.98;6.82;;;11.90;99.90;;;;;;5065161;28;20061;-71
2021/12/31 08:09:59;;;;;;;9.00;5.50;;;11.90;99.90;;;;;;5064898;28;20048;-71
2021/12/31 08:12:25;;;;;;;12.85;6.47;;;12.00;99.90;;;;;;5066409;28;20515;-71
2021/12/31 08:14:51;;;;;;;10.93;6.40;;;12.00;99.90;;;;;;5065582;28;20041;-71
2021/12/31 08:17:17;;;;;;;12.70;6.95;;;12.00;99.90;;;;;;5066229;28;20131;-71
2021/12/31 08:19:42;;;;;;;8.32;5.90;;;12.00;99.90;;;;;;5065821;28;20106;-71
2021/12/31 08:22:08;;;;;;;6.45;5.85;;;12.00;99.90;;;;;;5064387;28;20505;-71
2021/12/31 08:24:34;;;;;;;10.02;5.75;;;12.00;99.90;;;;;;5064199;28;20040;-70
2021/12/31 08:27:00;;;;;;;17.45;7.20;;;12.10;99.90;;;;;;5065697;28;20060;-72
2021/12/31 08:29:26;;;;;;;8.00;5.28;;;12.10;99.90;;;;;;5064926;28;20040;-71
2021/12/31 08:31:52;;;;;;;7.78;5.75;;;12.20;99.90;;;;;;5065213;28;20048;-71
2021/12/31 08:34:18;;;;;;;12.68;6.90;;;12.30;99.90;;;;;;5070348;28;20047;-71
2021/12/31 08:36:44;;;;;;;8.15;5.53;;;12.40;99.90;;;;;;5068388;28;20485;-71
2021/12/31 08:39:10;;;;;;;7.50;5.93;;;12.50;99.90;;;;;;5069503;28;20514;-71
2021/12/31 08:41:40;;;;;;;10.98;6.05;;;12.50;99.90;;;;;;5068969;28;20071;-71
2021/12/31 08:44:07;;;;;;;9.18;5.55;;;12.60;99.90;;;;;;5068209;28;20478;-71
2021/12/31 08:46:35;;;;;;;9.65;5.80;;;12.50;99.90;;;;;;5069647;28;20049;-71
2021/12/31 08:49:02;;;;;;;11.27;6.47;;;12.50;99.90;;;;;;5071066;28;20064;-71
2021/12/31 08:51:28;;;;;;;8.75;5.50;;;12.50;99.90;;;;;;5069632;28;20517;-71
2021/12/31 08:53:55;;;;;;;10.10;5.35;;;12.50;99.90;;;;;;5069742;28;20169;-71
2021/12/31 08:56:21;;;;;;;11.80;5.25;;;12.50;99.90;;;;;;5068451;28;20045;-71
2021/12/31 08:58:47;;;;;;;8.80;6.30;;;12.50;99.90;;;;;;5067769;28;20394;-71
2021/12/31 09:01:14;;;;;;;7.60;6.32;;;12.50;99.90;;;;;;5050661;28;20065;-68
2021/12/31 09:03:40;;;;;;;13.23;6.28;;;12.50;99.90;;;;;;5068384;28;20071;-68
2021/12/31 09:06:08;;;;;;;8.18;5.93;;;12.60;99.90;;;;;;5066949;28;20517;-68
2021/12/31 09:08:35;;;;;;;9.30;6.85;;;12.70;99.90;;;;;;5065090;28;20075;-68
2021/12/31 09:11:01;;;;;;;13.00;6.10;;;12.70;99.90;;;;;;5066773;28;20468;-68
2021/12/31 09:13:28;;;;;;;11.80;6.72;;;12.70;99.90;;;;;;5065496;28;20049;-67
2021/12/31 09:15:55;;;;;;;12.32;5.43;;;12.70;99.90;;;;;;5068094;28;20048;-67
2021/12/31 09:18:21;;;;;;;6.72;5.57;;;12.70;99.90;;;;;;5067888;28;20527;-68
2021/12/31 09:20:48;;;;;;;8.82;6.80;;;12.80;99.90;;;;;;5066071;28;20037;-68
2021/12/31 09:23:14;;;;;;;11.45;6.72;;;12.80;99.90;;;;;;5067259;28;20041;-68
2021/12/31 09:25:39;;;;;;;9.48;5.95;;;12.80;99.90;;;;;;5070964;28;20167;-68
2021/12/31 09:28:05;;;;;;;15.77;6.70;;;12.80;99.90;;;;;;5070440;28;20131;-68
2021/12/31 09:30:31;;;;;;;13.48;7.65;;;12.80;99.90;;;;;;5068318;28;20040;-67
2021/12/31 09:32:56;;;;;;;8.77;6.47;;;12.80;99.90;;;;;;5059521;28;20082;-68
2021/12/31 09:35:22;;;;;;;12.48;6.63;;;12.80;99.90;;;;;;5069928;28;20386;-68
2021/12/31 09:37:48;;;;;;;11.70;5.80;;;12.80;99.90;;;;;;5067142;28;20037;-68
2021/12/31 09:40:18;;;;;;;12.55;6.55;;;12.80;99.90;;;;;;5067174;28;20129;-68
2021/12/31 09:43:08;;;;;;;11.15;5.93;;;12.80;99.90;;;;;;5059081;28;20056;-68
2021/12/31 09:45:36;;;;;;;10.45;7.07;;;12.90;99.90;;;;;;5059861;28;20051;-68
2021/12/31 09:48:02;;;;;;;10.05;6.65;;;12.90;99.90;;;;;;5060322;28;20053;-67
2021/12/31 09:50:28;;;;;;;10.88;6.35;;;12.90;99.90;;;;;;5063111;28;20138;-68
2021/12/31 09:52:55;;;;;;;13.90;7.00;;;12.90;99.90;;;;;;5075080;28;20080;-68
2021/12/31 09:55:41;;;;;;;8.18;5.93;;;13.00;99.90;;;;;;5068124;28;20047;-68
2021/12/31 09:58:08;;;;;;;12.52;6.60;;;13.00;99.90;;;;;;5064592;28;20051;-68
2021/12/31 10:00:41;;;;;;;8.18;6.18;;;13.00;99.90;;;;;;5066427;28;20080;-68
2021/12/31 10:03:25;;;;;;;12.40;6.95;;;13.00;99.90;;;;;;5065646;28;20088;-68
2021/12/31 10:05:59;;;;;;;10.45;6.20;;;13.00;99.90;;;;;;5059218;28;20680;-68
2021/12/31 10:08:27;;;;;;;9.15;5.90;;;12.90;99.90;;;;;;5059491;28;20057;-68
2021/12/31 10:11:12;;;;;;;12.93;6.68;;;12.90;99.90;;;;;;5061939;28;20508;-68
2021/12/31 10:13:39;;;;;;;11.05;6.32;;;12.90;99.90;;;;;;5060623;28;20048;-68
2021/12/31 10:16:06;;;;;;;9.43;7.32;;;12.80;99.90;;;;;;5060080;28;20052;-68
2021/12/31 10:18:37;;;;;;;10.32;6.63;;;12.80;99.90;;;;;;5060566;28;20123;-68
2021/12/31 10:21:04;;;;;;;7.45;6.68;;;12.80;99.90;;;;;;5061050;28;20048;-68
2021/12/31 10:23:31;;;;;;;8.98;6.78;;;12.80;99.90;;;;;;5062362;28;20097;-68
2021/12/31 10:26:11;;;;;;;14.77;7.82;;;12.80;99.90;;;;;;5060965;28;20119;-68
2021/12/31 10:28:54;;;;;;;14.43;9.18;;;12.90;99.90;;;;;;5059197;28;20394;-68
2021/12/31 10:31:20;;;;;;;11.98;6.88;;;12.90;99.90;;;;;;5060389;28;20478;-68
2021/12/31 10:33:47;;;;;;;17.85;7.75;;;12.90;99.90;;;;;;5062030;28;20037;-68
2021/12/31 10:36:33;;;;;;;10.15;7.35;;;12.90;99.90;;;;;;5061437;28;20125;-68
2021/12/31 10:39:00;;;;;;;16.85;8.93;;;12.90;99.90;;;;;;5057748;28;20059;-68
2021/12/31 10:41:28;;;;;;;12.43;8.60;;;12.90;99.90;;;;;;5060876;28;20071;-69
2021/12/31 10:43:59;;;;;;;15.52;10.00;;;12.90;99.90;;;;;;5060638;28;20067;-70
2021/12/31 10:46:25;;;;;;;12.20;9.23;;;12.90;99.90;;;;;;5060415;28;20107;-69
2021/12/31 10:48:55;;;;;;;16.60;11.93;;;12.80;99.90;;;;;;5059731;28;20051;-67
2021/12/31 10:51:38;;;;;;;13.02;10.77;;;12.90;99.90;;;;;;5059072;28;20044;-68
2021/12/31 10:54:47;;;;;;;19.65;12.25;;;12.90;99.90;;;;;;5061762;28;20049;-68
2021/12/31 10:57:34;;;;;;;17.90;13.45;;;12.80;99.90;;;;;;5061551;28;20117;-68
2021/12/31 10:59:59;;;;;;;15.70;14.00;;;12.80;99.90;;;;;;5059782;28;20066;-68
2021/12/31 11:02:25;;;;;;;14.20;11.52;;;12.80;99.90;;;;;;5059718;28;20077;-68
2021/12/31 11:04:51;;;;;;;16.75;11.13;;;12.80;99.90;;;;;;5060550;28;21245;-68
2021/12/31 11:07:17;;;;;;;15.00;11.07;;;12.80;99.90;;;;;;5059599;28;20053;-68
2021/12/31 11:09:44;;;;;;;17.00;10.90;;;12.80;99.90;;;;;;5060696;28;20063;-68
2021/12/31 11:12:12;;;;;;;16.80;11.00;;;12.80;99.90;;;;;;5059901;28;20048;-67
2021/12/31 11:14:38;;;;;;;14.27;10.50;;;12.80;99.90;;;;;;5061316;28;20080;-68
2021/12/31 11:17:04;;;;;;;16.00;10.00;;;12.80;99.90;;;;;;5060881;28;20563;-67
2021/12/31 11:19:30;;;;;;;15.30;9.48;;;12.80;99.90;;;;;;5060121;28;20036;-67
2021/12/31 11:21:55;;;;;;;11.00;8.82;;;12.70;99.90;;;;;;5060841;28;20059;-68
2021/12/31 11:24:30;;;;;;;16.33;10.45;;;12.80;99.90;;;;;;5058808;28;20083;-66
2021/12/31 11:26:58;;;;;;;14.52;10.52;;;12.70;99.90;;;;;;5061373;28;20059;-67
2021/12/31 11:29:39;;;;;;;18.08;10.25;;;12.70;99.90;;;;;;5059755;28;20055;-66
2021/12/31 11:32:05;;;;;;;16.27;11.15;;;12.70;99.90;;;;;;5058775;28;20666;-66
2021/12/31 11:34:31;;;;;;;13.00;10.05;;;12.60;99.90;;;;;;5061548;28;20076;-67
2021/12/31 11:36:57;;;;;;;19.30;9.93;;;12.60;99.90;;;;;;5061595;28;20474;-67
2021/12/31 11:39:32;;;;;;;19.77;10.80;;;12.50;99.90;;;;;;5061964;28;20097;-67
2021/12/31 11:42:00;;;;;;;18.95;11.32;;;12.50;99.90;;;;;;5060041;28;20826;-67
2021/12/31 11:44:27;;;;;;;28.27;11.57;;;12.50;99.90;;;;;;5060016;28;20114;-66
2021/12/31 11:47:28;;;;;;;17.80;11.25;;;12.50;99.90;;;;;;5064358;28;20044;-67
2021/12/31 11:50:25;;;;;;;17.23;11.65;;;12.50;99.90;;;;;;5063196;28;20135;-67
2021/12/31 11:53:04;;;;;;;12.57;11.13;;;12.40;99.90;;;;;;5073402;28;20516;-67
2021/12/31 11:55:42;;;;;;;21.80;11.68;;;12.40;99.90;;;;;;5067933;28;20040;-66
2021/12/31 11:58:41;;;;;;;17.08;12.40;;;12.30;99.90;;;;;;5067325;28;20048;-67
2021/12/31 12:01:34;;;;;;;16.80;12.00;;;12.40;99.90;;;;;;5065110;28;20145;-67
2021/12/31 12:04:22;;;;;;;18.75;11.60;;;12.30;99.90;;;;;;5062509;28;20085;-66
2021/12/31 12:06:51;;;;;;;16.92;11.45;;;12.30;99.90;;;;;;5065748;28;20048;-66
2021/12/31 12:09:16;;;;;;;18.73;10.85;;;12.30;99.90;;;;;;5069357;28;20124;-66
2021/12/31 12:12:01;;;;;;;18.40;10.93;;;12.30;99.90;;;;;;5067682;28;20128;-67
2021/12/31 12:14:28;;;;;;;19.48;11.18;;;12.30;99.90;;;;;;5062618;28;20040;-66
2021/12/31 12:16:58;;;;;;;17.23;11.85;;;12.20;99.90;;;;;;5061697;28;20074;-66
2021/12/31 12:19:51;;;;;;;28.02;12.57;;;12.20;99.90;;;;;;5068480;28;20401;-66
2021/12/31 12:22:33;;;;;;;15.52;10.50;;;12.20;99.90;;;;;;5063774;28;20079;-66
2021/12/31 12:25:14;;;;;;;24.70;11.55;;;12.20;99.90;;;;;;5065590;28;20072;-66
2021/12/31 12:27:41;;;;;;;16.15;11.98;;;12.10;99.90;;;;;;5070725;28;20123;-66
2021/12/31 12:30:09;;;;;;;15.95;11.40;;;12.10;99.90;;;;;;5070632;28;20040;-66
2021/12/31 12:32:39;;;;;;;15.82;12.15;;;12.00;99.90;;;;;;5069623;28;20040;-66
2021/12/31 12:35:19;;;;;;;22.70;12.40;;;12.00;99.90;;;;;;5071726;28;20505;-66
2021/12/31 12:38:05;;;;;;;20.27;11.95;;;12.00;99.90;;;;;;5068711;28;20059;-66
2021/12/31 12:40:42;;;;;;;22.88;13.52;;;11.90;99.90;;;;;;5069694;28;20048;-66
2021/12/31 12:43:24;;;;;;;21.77;13.15;;;11.90;99.90;;;;;;5065702;28;20060;-66